createdAt,value
2018-02-14T00:01:44.284Z,3.53
2018-02-14T00:04:17.095Z,3.68
2018-02-14T00:06:48.715Z,3.68
2018-02-14T00:09:22.245Z,3.53
2018-02-14T00:11:55.346Z,3.75
2018-02-14T00:14:27.237Z,3.74
2018-02-14T00:16:59.917Z,3.78
2018-02-14T00:19:30.764Z,3.73
2018-02-14T00:22:02.617Z,3.77
2018-02-14T00:24:34.958Z,3.78
2018-02-14T00:27:09.083Z,3.81
2018-02-14T00:29:43.106Z,3.75
2018-02-14T00:32:15.405Z,3.64
2018-02-14T00:34:50.578Z,3.63
2018-02-14T00:37:26.137Z,3.65
2018-02-14T00:40:08.276Z,3.69
2018-02-14T00:42:42.636Z,3.79
2018-02-14T00:45:39.793Z,3.82
2018-02-14T00:48:13.558Z,3.68
2018-02-14T00:50:46.639Z,3.77
2018-02-14T00:53:20.787Z,3.81
2018-02-14T00:56:06.905Z,3.72
2018-02-14T00:58:40.539Z,3.72
2018-02-14T01:01:14.452Z,3.76
2018-02-14T01:03:48.784Z,3.57
2018-02-14T01:06:20.673Z,3.37
2018-02-14T01:08:56.238Z,3.58
2018-02-14T01:11:34.617Z,3.57
2018-02-14T01:14:11.834Z,3.55
2018-02-14T01:16:44.649Z,3.48
2018-02-14T01:19:19.619Z,3.44
2018-02-14T01:21:51.671Z,3.48
2018-02-14T01:24:26.090Z,3.40
2018-02-14T01:27:04.352Z,3.42
2018-02-14T01:29:40.235Z,3.38
2018-02-14T01:32:14.086Z,3.29
2018-02-14T01:34:46.563Z,3.27
2018-02-14T01:37:21.328Z,3.45
2018-02-14T01:39:54.177Z,3.43
2018-02-14T01:42:27.751Z,3.43
2018-02-14T01:45:06.434Z,3.42
2018-02-14T01:47:39.152Z,3.47
2018-02-14T01:50:10.599Z,3.22
2018-02-14T01:52:41.723Z,3.39
2018-02-14T01:55:12.314Z,3.53
2018-02-14T01:57:46.135Z,3.44
2018-02-14T02:00:21.094Z,3.49
2018-02-14T02:02:59.191Z,3.45
2018-02-14T02:08:12.714Z,3.37
2018-02-14T02:10:47.247Z,3.34
2018-02-14T02:13:17.455Z,3.35
2018-02-14T02:15:48.505Z,3.26
2018-02-14T02:18:27.090Z,3.26
2018-02-14T02:21:00.254Z,3.34
2018-02-14T02:23:33.520Z,3.32
2018-02-14T02:26:05.352Z,3.28
2018-02-14T02:28:36.536Z,3.24
2018-02-14T02:31:15.486Z,3.29
2018-02-14T02:33:48.846Z,3.22
2018-02-14T02:36:20.442Z,3.27
2018-02-14T02:38:51.629Z,3.16
2018-02-14T02:41:22.172Z,3.15
2018-02-14T02:43:55.561Z,3.06
2018-02-14T02:46:31.845Z,2.97
2018-02-14T02:49:04.434Z,2.97
2018-02-14T02:51:38.869Z,2.88
2018-02-14T02:54:09.617Z,2.83
2018-02-14T02:56:44.107Z,2.87
2018-02-14T02:59:20.265Z,2.78
2018-02-14T03:01:52.069Z,2.72
2018-02-14T03:04:23.903Z,2.71
2018-02-14T03:06:57.330Z,2.75
2018-02-14T03:09:28.136Z,2.61
2018-02-14T03:11:59.945Z,2.66
2018-02-14T03:14:30.163Z,2.67
2018-02-14T03:17:02.362Z,2.72
2018-02-14T03:19:34.443Z,2.68
2018-02-14T03:22:04.910Z,2.61
2018-02-14T03:24:36.294Z,2.58
2018-02-14T03:27:08.129Z,2.61
2018-02-14T03:29:40.579Z,2.59
2018-02-14T03:32:13.486Z,2.59
2018-02-14T03:34:44.295Z,2.53
2018-02-14T03:37:14.770Z,2.53
2018-02-14T03:39:46.739Z,2.50
2018-02-14T03:42:17.257Z,2.69
2018-02-14T03:44:47.509Z,2.63
2018-02-14T03:47:20.048Z,2.72
2018-02-14T03:49:50.771Z,2.65
2018-02-14T03:52:21.572Z,2.62
2018-02-14T03:54:52.901Z,2.57
2018-02-14T03:57:24.147Z,2.57
2018-02-14T03:59:55.934Z,2.53
2018-02-14T04:02:29.967Z,2.52
2018-02-14T04:05:02.723Z,2.58
2018-02-14T04:07:34.476Z,2.54
2018-02-14T04:10:14.971Z,2.43
2018-02-14T04:12:46.515Z,2.47
2018-02-14T04:15:18.667Z,2.54
2018-02-14T04:17:48.839Z,2.47
2018-02-14T04:20:22.972Z,2.48
2018-02-14T04:22:54.543Z,2.51
2018-02-14T04:25:26.885Z,2.39
2018-02-14T04:27:59.770Z,2.40
2018-02-14T04:30:42.154Z,2.40
2018-02-14T04:33:12.699Z,2.40
2018-02-14T04:35:46.209Z,2.37
2018-02-14T04:38:18.703Z,2.38
2018-02-14T04:40:50.213Z,2.34
2018-02-14T04:43:24.074Z,2.45
2018-02-14T04:45:55.657Z,2.47
2018-02-14T04:48:27.836Z,2.47
2018-02-14T04:51:05.007Z,2.54
2018-02-14T04:53:37.236Z,2.52
2018-02-14T04:56:15.575Z,2.49
2018-02-14T04:58:45.932Z,2.53
2018-02-14T05:01:17.127Z,2.49
2018-02-14T05:03:47.483Z,2.47
2018-02-14T05:06:20.409Z,2.46
2018-02-14T05:08:51.516Z,2.36
2018-02-14T05:11:21.824Z,2.33
2018-02-14T05:13:52.227Z,2.35
2018-02-14T05:16:23.359Z,2.50
2018-02-14T05:18:54.064Z,2.54
2018-02-14T05:21:26.640Z,2.50
2018-02-14T05:23:57.576Z,2.53
2018-02-14T05:26:28.162Z,2.56
2018-02-14T05:28:58.456Z,2.43
2018-02-14T05:31:29.170Z,2.34
2018-02-14T05:33:59.619Z,2.30
2018-02-14T05:36:31.572Z,2.41
2018-02-14T05:41:31.054Z,2.39
2018-02-14T05:44:02.000Z,2.38
2018-02-14T05:46:32.573Z,2.29
2018-02-14T05:49:07.093Z,2.29
2018-02-14T05:51:41.339Z,2.26
2018-02-14T05:54:14.681Z,2.25
2018-02-14T05:56:45.140Z,2.26
2018-02-14T06:01:58.614Z,2.18
2018-02-14T06:04:28.987Z,2.12
2018-02-14T06:06:59.691Z,2.22
2018-02-14T06:09:30.250Z,2.14
2018-02-14T06:12:02.225Z,2.21
2018-02-14T06:14:35.215Z,2.08
2018-02-14T06:17:07.455Z,2.06
2018-02-14T06:19:39.825Z,1.99
2018-02-14T06:22:10.720Z,2.04
2018-02-14T06:24:41.172Z,1.93
2018-02-14T06:27:12.905Z,1.97
2018-02-14T06:29:43.339Z,2.03
2018-02-14T06:32:15.627Z,2.01
2018-02-14T06:34:46.872Z,1.95
2018-02-14T06:37:17.935Z,1.87
2018-02-14T06:39:50.507Z,1.84
2018-02-14T06:42:22.248Z,2.00
2018-02-14T06:44:54.388Z,2.15
2018-02-14T06:47:30.385Z,2.33
2018-02-14T06:50:04.201Z,2.42
2018-02-14T06:52:36.027Z,2.25
2018-02-14T06:55:06.487Z,2.34
2018-02-14T06:57:38.941Z,2.42
2018-02-14T07:00:18.130Z,2.42
2018-02-14T07:02:48.447Z,2.51
2018-02-14T07:05:22.518Z,2.49
2018-02-14T07:08:01.709Z,2.53
2018-02-14T07:10:34.064Z,2.54
2018-02-14T07:13:12.184Z,2.44
2018-02-14T07:15:49.367Z,2.43
2018-02-14T07:18:21.417Z,2.50
2018-02-14T07:21:00.394Z,2.32
2018-02-14T07:23:48.867Z,2.40
2018-02-14T07:26:23.334Z,2.40
2018-02-14T07:28:57.335Z,2.39
2018-02-14T07:31:29.898Z,2.52
2018-02-14T07:34:04.545Z,2.59
2018-02-14T07:36:37.432Z,2.54
2018-02-14T07:39:12.552Z,2.73
2018-02-14T07:41:46.863Z,2.66
2018-02-14T07:44:19.217Z,2.86
2018-02-14T07:46:55.267Z,2.43
2018-02-14T07:49:28.480Z,2.70
2018-02-14T07:52:00.337Z,2.69
2018-02-14T07:54:33.903Z,2.76
2018-02-14T07:57:06.893Z,2.66
2018-02-14T07:59:41.632Z,2.69
2018-02-14T08:02:14.703Z,2.55
2018-02-14T08:04:51.038Z,2.86
2018-02-14T08:07:24.211Z,3.01
2018-02-14T08:09:57.058Z,2.83
2018-02-14T08:12:32.808Z,3.13
2018-02-14T08:15:19.149Z,3.27
2018-02-14T08:17:51.904Z,3.04
2018-02-14T08:20:25.080Z,3.16
2018-02-14T08:22:59.326Z,3.65
2018-02-14T08:25:36.522Z,3.47
2018-02-14T08:28:22.570Z,4.06
2018-02-14T08:30:55.815Z,4.38
2018-02-14T08:33:29.272Z,4.50
2018-02-14T08:36:03.869Z,4.82
2018-02-14T08:38:36.112Z,5.06
2018-02-14T08:41:22.384Z,4.54
2018-02-14T08:44:04.194Z,4.69
2018-02-14T08:46:37.614Z,5.10
2018-02-14T08:49:09.392Z,5.65
2018-02-14T08:51:40.509Z,6.34
2018-02-14T08:54:11.500Z,6.79
2018-02-14T08:56:45.001Z,6.30
2018-02-14T08:59:23.181Z,7.15
2018-02-14T09:01:56.174Z,7.62
2018-02-14T09:04:31.261Z,7.91
2018-02-14T09:07:04.166Z,7.82
2018-02-14T09:09:35.706Z,7.94
2018-02-14T09:12:06.652Z,8.39
2018-02-14T09:14:38.248Z,8.19
2018-02-14T09:17:12.891Z,8.36
2018-02-14T09:19:44.091Z,8.39
2018-02-14T09:22:18.168Z,9.05
2018-02-14T09:24:50.579Z,9.03
2018-02-14T09:27:21.985Z,9.25
2018-02-14T09:29:52.680Z,8.91
2018-02-14T09:32:25.023Z,9.84
2018-02-14T09:34:56.676Z,10.05
2018-02-14T09:37:27.156Z,9.65
2018-02-14T09:39:57.765Z,10.49
2018-02-14T09:42:29.859Z,10.52
2018-02-14T09:45:00.528Z,10.92
2018-02-14T09:47:33.710Z,10.72
2018-02-14T09:50:04.692Z,10.93
2018-02-14T09:52:35.319Z,10.75
2018-02-14T09:55:05.668Z,10.98
2018-02-14T09:57:36.822Z,11.04
2018-02-14T10:00:14.984Z,9.70
2018-02-14T10:02:46.853Z,11.24
2018-02-14T10:05:20.023Z,11.60
2018-02-14T10:07:50.563Z,10.89
2018-02-14T10:10:21.660Z,11.43
2018-02-14T10:12:53.412Z,12.11
2018-02-14T10:15:24.042Z,11.86
2018-02-14T10:17:55.370Z,12.54
2018-02-14T10:20:26.261Z,12.65
2018-02-14T10:23:09.832Z,12.34
2018-02-14T10:28:31.068Z,13.15
2018-02-14T10:31:02.600Z,12.88
2018-02-14T10:33:35.048Z,12.69
2018-02-14T10:36:06.842Z,12.44
2018-02-14T10:38:37.644Z,12.07
2018-02-14T10:41:09.526Z,11.91
2018-02-14T10:43:41.194Z,12.49
2018-02-14T10:46:11.859Z,12.56
2018-02-14T10:48:43.004Z,13.42
2018-02-14T10:51:13.619Z,12.78
2018-02-14T10:53:44.076Z,11.51
2018-02-14T10:56:21.649Z,11.72
2018-02-14T10:58:51.836Z,12.22
2018-02-14T11:01:29.524Z,12.15
2018-02-14T11:04:04.742Z,12.33
2018-02-14T11:06:36.949Z,12.23
2018-02-14T11:09:07.646Z,13.09
2018-02-14T11:11:38.061Z,13.09
2018-02-14T11:14:08.538Z,12.81
2018-02-14T11:16:39.338Z,12.83
2018-02-14T11:19:10.914Z,12.17
2018-02-14T11:21:42.081Z,11.68
2018-02-14T11:24:12.903Z,10.45
2018-02-14T11:26:43.627Z,9.96
2018-02-14T11:29:14.846Z,11.73
2018-02-14T11:31:46.822Z,12.76
2018-02-14T11:34:19.059Z,13.38
2018-02-14T11:36:50.050Z,12.44
2018-02-14T11:39:24.083Z,12.86
2018-02-14T11:42:01.356Z,12.77
2018-02-14T11:44:32.780Z,13.48
2018-02-14T11:47:03.577Z,12.17
2018-02-14T11:49:34.290Z,13.12
2018-02-14T11:52:05.173Z,13.51
2018-02-14T11:54:37.528Z,12.49
2018-02-14T11:57:08.697Z,12.26
2018-02-14T11:59:40.026Z,12.90
2018-02-14T12:02:11.365Z,12.86
2018-02-14T12:04:42.421Z,12.34
2018-02-14T12:07:13.888Z,12.25
2018-02-14T12:09:44.428Z,12.04
2018-02-14T12:12:17.224Z,11.74
2018-02-14T12:14:49.388Z,12.22
2018-02-14T12:17:20.783Z,11.84
2018-02-14T12:19:51.262Z,12.44
2018-02-14T12:22:21.899Z,12.16
2018-02-14T12:24:52.699Z,11.66
2018-02-14T12:27:27.310Z,11.97
2018-02-14T12:30:00.820Z,12.42
2018-02-14T12:32:34.843Z,12.30
2018-02-14T12:35:06.179Z,11.72
2018-02-14T12:37:36.976Z,10.45
2018-02-14T12:40:07.590Z,11.29
2018-02-14T12:42:37.987Z,11.53
2018-02-14T12:45:13.332Z,11.28
2018-02-14T12:47:45.074Z,10.69
2018-02-14T12:50:16.034Z,11.08
2018-02-14T12:52:46.856Z,11.11
2018-02-14T12:55:18.303Z,11.32
2018-02-14T12:57:57.706Z,10.98
2018-02-14T13:00:32.409Z,10.88
2018-02-14T13:03:03.269Z,10.77
2018-02-14T13:08:20.387Z,11.03
2018-02-14T13:10:55.437Z,11.14
2018-02-14T13:13:26.965Z,10.83
2018-02-14T13:15:58.228Z,10.97
2018-02-14T13:18:35.329Z,11.04
2018-02-14T13:21:07.368Z,10.77
2018-02-14T13:23:40.194Z,10.82
2018-02-14T13:26:16.893Z,10.33
2018-02-14T13:28:51.823Z,11.03
2018-02-14T13:31:38.485Z,10.71
2018-02-14T13:34:21.698Z,9.99
2018-02-14T13:36:53.143Z,10.03
2018-02-14T13:39:25.752Z,10.23
2018-02-14T13:41:58.954Z,9.94
2018-02-14T13:45:17.061Z,10.02
2018-02-14T13:47:51.114Z,9.76
2018-02-14T13:50:26.099Z,9.66
2018-02-14T13:53:00.084Z,9.24
2018-02-14T13:55:38.455Z,9.47
2018-02-14T13:58:11.745Z,9.52
2018-02-14T14:00:48.107Z,9.35
2018-02-14T14:03:27.833Z,9.54
2018-02-14T14:06:06.584Z,9.40
2018-02-14T14:08:41.759Z,9.56
2018-02-14T14:14:21.009Z,8.88
2018-02-14T14:16:58.555Z,9.08
2018-02-14T14:19:41.095Z,8.93
2018-02-14T14:22:16.113Z,9.30
2018-02-14T14:24:51.322Z,9.26
2018-02-14T14:30:04.998Z,9.11
2018-02-14T14:32:39.092Z,9.12
2018-02-14T14:35:15.621Z,9.08
2018-02-14T14:37:47.481Z,9.17
2018-02-14T14:40:18.176Z,9.21
2018-02-14T14:42:49.017Z,9.14
2018-02-14T14:45:23.532Z,9.18
2018-02-14T14:47:54.803Z,9.18
2018-02-14T14:50:26.307Z,9.24
2018-02-14T14:53:02.377Z,9.13
2018-02-14T14:55:33.199Z,8.98
2018-02-14T14:58:04.271Z,8.76
2018-02-14T15:00:35.231Z,8.90
2018-02-14T15:03:08.005Z,8.74
2018-02-14T15:05:49.254Z,8.81
2018-02-14T15:08:20.373Z,8.75
2018-02-14T15:11:14.776Z,8.68
2018-02-14T15:14:01.468Z,8.61
2018-02-14T15:16:32.382Z,8.37
2018-02-14T15:19:04.497Z,8.41
2018-02-14T15:21:35.865Z,8.47
2018-02-14T15:24:07.410Z,8.47
2018-02-14T15:26:47.012Z,8.55
2018-02-14T15:29:24.181Z,8.44
2018-02-14T15:31:57.870Z,8.28
2018-02-14T15:34:31.152Z,8.25
2018-02-14T15:37:03.135Z,8.34
2018-02-14T15:39:35.363Z,8.31
2018-02-14T15:42:12.755Z,8.26
2018-02-14T15:44:45.072Z,8.17
2018-02-14T15:47:16.332Z,8.10
2018-02-14T15:49:47.255Z,8.21
2018-02-14T15:52:18.905Z,8.17
2018-02-14T15:54:51.198Z,8.22
2018-02-14T15:57:22.366Z,8.04
2018-02-14T16:00:36.127Z,7.89
2018-02-14T16:03:07.093Z,8.09
2018-02-14T16:05:39.881Z,8.18
2018-02-14T16:08:10.745Z,8.32
2018-02-14T16:10:42.705Z,8.28
2018-02-14T16:13:13.707Z,8.29
2018-02-14T16:15:45.714Z,7.96
2018-02-14T16:18:17.663Z,8.07
2018-02-14T16:20:52.142Z,8.26
2018-02-14T16:23:25.541Z,7.96
2018-02-14T16:25:59.354Z,7.55
2018-02-14T16:28:33.777Z,7.75
2018-02-14T16:34:09.246Z,8.02
2018-02-14T16:37:10.376Z,7.77
2018-02-14T16:39:43.603Z,8.15
2018-02-14T16:45:06.751Z,6.55
2018-02-14T16:47:39.828Z,8.35
2018-02-14T16:50:11.529Z,8.34
2018-02-14T16:52:44.973Z,8.27
2018-02-14T16:55:17.035Z,8.34
2018-02-14T16:57:48.988Z,8.25
2018-02-14T17:00:22.473Z,8.21
2018-02-14T17:03:10.771Z,8.19
2018-02-14T17:05:45.593Z,8.20
2018-02-14T17:08:25.230Z,8.04
2018-02-14T17:10:58.986Z,7.94
2018-02-14T17:16:39.428Z,8.06
2018-02-14T17:19:21.306Z,8.10
2018-02-14T17:22:07.902Z,8.11
2018-02-14T17:24:52.991Z,8.04
2018-02-14T17:27:30.090Z,7.49
2018-02-14T17:30:08.524Z,7.50
2018-02-14T17:32:50.101Z,7.45
2018-02-14T17:35:24.988Z,7.39
2018-02-14T17:37:58.314Z,7.31
2018-02-14T17:40:32.461Z,7.12
2018-02-14T17:43:33.648Z,7.20
2018-02-14T17:46:16.123Z,7.06
2018-02-14T17:48:56.320Z,6.90
2018-02-14T17:51:34.160Z,6.95
2018-02-14T17:54:23.160Z,7.00
2018-02-14T17:57:05.153Z,7.01
2018-02-14T17:59:47.493Z,6.97
2018-02-14T18:02:36.004Z,6.94
2018-02-14T18:05:13.139Z,6.66
2018-02-14T18:07:52.908Z,6.68
2018-02-14T18:13:13.770Z,6.59
2018-02-14T18:15:54.660Z,6.61
2018-02-14T18:18:34.331Z,6.38
2018-02-14T18:21:18.889Z,6.48
2018-02-14T18:24:02.558Z,6.41
2018-02-14T18:26:41.995Z,6.38
2018-02-14T18:29:19.662Z,6.27
2018-02-14T18:32:03.566Z,6.10
2018-02-14T18:34:42.174Z,6.28
2018-02-14T18:37:20.797Z,6.27
2018-02-14T18:39:53.616Z,6.26
2018-02-14T18:42:32.472Z,6.22
2018-02-14T18:45:20.401Z,6.24
2018-02-14T18:47:54.883Z,6.18
2018-02-14T18:50:36.070Z,6.14
2018-02-14T18:53:11.279Z,6.05
2018-02-14T18:55:45.765Z,6.14
2018-02-14T18:58:18.850Z,6.07
2018-02-14T19:00:54.872Z,6.08
2018-02-14T19:03:32.660Z,6.04
2018-02-14T19:06:12.169Z,5.93
2018-02-14T19:08:48.684Z,5.93
2018-02-14T19:11:25.948Z,5.96
2018-02-14T19:14:08.985Z,5.97
2018-02-14T19:19:24.418Z,5.92
2018-02-14T19:21:58.196Z,5.79
2018-02-14T19:24:36.202Z,5.88
2018-02-14T19:27:16.805Z,5.69
2018-02-14T19:32:55.677Z,5.94
2018-02-14T19:35:41.310Z,5.83
2018-02-14T19:38:18.253Z,5.89
2018-02-14T19:40:53.248Z,5.86
2018-02-14T19:43:27.882Z,5.76
2018-02-14T19:46:07.519Z,5.94
2018-02-14T19:48:40.944Z,6.00
2018-02-14T19:51:14.996Z,6.02
2018-02-14T19:53:50.455Z,5.96
2018-02-14T19:56:23.205Z,6.02
2018-02-14T19:58:56.841Z,6.04
2018-02-14T20:01:32.657Z,5.91
2018-02-14T20:04:06.706Z,6.01
2018-02-14T20:06:42.326Z,5.95
2018-02-14T20:09:16.342Z,5.89
2018-02-14T20:11:58.929Z,5.82
2018-02-14T20:14:34.406Z,5.78
2018-02-14T20:17:14.441Z,5.71
2018-02-14T20:19:50.249Z,5.65
2018-02-14T20:22:27.499Z,5.43
2018-02-14T20:25:01.391Z,5.57
2018-02-14T20:27:34.820Z,5.31
2018-02-14T20:30:15.308Z,5.42
2018-02-14T20:32:53.400Z,5.50
2018-02-14T20:35:26.184Z,5.46
2018-02-14T20:38:01.873Z,5.53
2018-02-14T20:40:34.847Z,5.56
2018-02-14T20:43:09.257Z,5.51
2018-02-14T20:45:44.006Z,5.43
2018-02-14T20:48:17.678Z,5.44
2018-02-14T20:50:53.532Z,5.40
2018-02-14T20:53:26.805Z,5.45
2018-02-14T20:55:59.402Z,5.30
2018-02-14T20:58:31.923Z,5.29
2018-02-14T21:01:06.512Z,5.53
2018-02-14T21:03:38.614Z,5.39
2018-02-14T21:06:14.920Z,5.54
2018-02-14T21:08:48.313Z,5.53
2018-02-14T21:11:27.288Z,5.43
2018-02-14T21:14:05.996Z,5.42
2018-02-14T21:16:41.483Z,5.46
2018-02-14T21:19:21.677Z,5.41
2018-02-14T21:21:59.922Z,5.36
2018-02-14T21:24:36.778Z,5.37
2018-02-14T21:27:16.754Z,5.34
2018-02-14T21:30:14.216Z,5.21
2018-02-14T21:32:48.063Z,5.35
2018-02-14T21:35:22.316Z,5.31
2018-02-14T21:37:56.675Z,5.29
2018-02-14T21:43:18.391Z,5.33
2018-02-14T21:45:55.425Z,5.25
2018-02-14T21:48:31.792Z,5.51
2018-02-14T21:51:06.308Z,5.36
2018-02-14T21:53:40.882Z,5.50
2018-02-14T21:56:15.898Z,5.38
2018-02-14T21:58:51.621Z,5.39
2018-02-14T22:01:28.121Z,5.37
2018-02-14T22:04:07.155Z,5.51
2018-02-14T22:06:39.340Z,5.38
2018-02-14T22:11:59.482Z,5.38
2018-02-14T22:14:34.372Z,5.36
2018-02-14T22:17:09.602Z,5.15
2018-02-14T22:19:45.398Z,5.22
2018-02-14T22:22:21.884Z,5.53
2018-02-14T22:24:57.855Z,5.59
2018-02-14T22:27:36.461Z,5.33
2018-02-14T22:32:54.051Z,5.68
2018-02-14T22:35:27.650Z,5.59
2018-02-14T22:38:06.590Z,5.48
2018-02-14T22:40:41.264Z,5.31
2018-02-14T22:43:14.079Z,5.27
2018-02-14T22:45:50.212Z,5.52
2018-02-14T22:48:22.503Z,5.63
2018-02-14T22:50:53.075Z,5.64
2018-02-14T22:53:28.764Z,5.53
2018-02-14T22:56:08.035Z,5.60
2018-02-14T22:58:47.684Z,5.68
2018-02-14T23:01:24.487Z,5.69
2018-02-14T23:03:57.985Z,5.69
2018-02-14T23:06:38.174Z,5.86
2018-02-14T23:09:16.551Z,5.75
2018-02-14T23:11:58.687Z,5.71
2018-02-14T23:14:30.695Z,5.80
2018-02-14T23:17:08.398Z,5.52
2018-02-14T23:19:45.064Z,5.61
2018-02-14T23:22:35.130Z,5.56
2018-02-14T23:25:11.863Z,5.58
2018-02-14T23:27:45.835Z,5.52
2018-02-14T23:30:28.872Z,5.46
2018-02-14T23:33:04.993Z,5.57
2018-02-14T23:35:39.238Z,5.49
2018-02-14T23:38:21.785Z,5.47
2018-02-14T23:40:59.425Z,5.64
2018-02-14T23:43:37.982Z,5.54
2018-02-14T23:46:11.069Z,5.71
2018-02-14T23:48:51.996Z,5.29
2018-02-14T23:51:25.966Z,5.59
2018-02-14T23:54:03.973Z,5.63
2018-02-14T23:56:39.063Z,5.70
2018-02-14T23:59:12.743Z,5.46
